Time;durP1;ratioP1;P1;durP2;ratioP2;P2;SDS_P1;SDS_P2;PMS_P1;PMS_P2;Temp;Humidity;BMP_temperature;BMP_pressure;BME280_temperature;BME280_humidity;BME280_pressure;Samples;Min_cycle;Max_cycle;Signal;HPM_P1;HPM_P2
2022/01/04 00:01:52;;;;;;;;;;;;;;;9.57;100.00;97273.25;5034298;28;19976;-81
2022/01/04 00:04:21;;;;;;;;;;;;;;;9.25;100.00;97268.16;5033155;28;19925;-80
2022/01/04 00:06:48;;;;;;;;;;;;;;;9.45;100.00;97268.56;5016145;28;19936;-81
2022/01/04 00:09:15;;;;;;;;;;;;;;;9.14;100.00;97263.78;5033852;28;19925;-80
2022/01/04 00:14:10;;;;;;;;;;;;;;;9.23;100.00;97259.47;5034181;28;19926;-81
2022/01/04 00:16:37;;;;;;;;;;;;;;;9.12;100.00;97260.66;5000024;28;19956;-80
2022/01/04 00:19:04;;;;;;;;;;;;;;;9.18;100.00;97258.84;5016484;28;19933;-81
2022/01/04 00:21:31;;;;;;;;;;;;;;;8.95;100.00;97256.53;5034116;28;19925;-81
2022/01/04 00:24:03;;;;;;;;;;;;;;;9.03;100.00;97255.03;5050031;28;19924;-80
2022/01/04 00:26:31;;;;;;;;;;;;;;;8.92;100.00;97242.78;5056179;28;19925;-81
2022/01/04 00:28:58;;;;;;;;;;;;;;;9.14;100.00;97247.06;5056232;28;19924;-81
2022/01/04 00:31:25;;;;;;;;;;;;;;;8.92;100.00;97251.13;5074151;28;19925;-81
2022/01/04 00:33:52;;;;;;;;;;;;;;;9.18;100.00;97242.13;5055976;28;19924;-81
2022/01/04 00:36:19;;;;;;;;;;;;;;;9.04;100.00;97239.88;5055838;28;19924;-81
2022/01/04 00:38:46;;;;;;;;;;;;;;;8.75;100.00;97247.00;5022989;28;19924;-81
2022/01/04 00:41:13;;;;;;;;;;;;;;;8.93;100.00;97245.09;5056013;28;19924;-81
2022/01/04 00:43:44;;;;;;;;;;;;;;;9.15;100.00;97240.25;5056085;28;20017;-81
2022/01/04 00:46:16;;;;;;;;;;;;;;;9.00;100.00;97241.25;5056082;28;19963;-81
2022/01/04 00:51:29;;;;;;;;;;;;;;;8.73;100.00;97239.09;5073842;28;19928;-81
2022/01/04 00:53:56;;;;;;;;;;;;;;;8.62;100.00;97238.69;5073619;28;19950;-80
2022/01/04 00:56:23;;;;;;;;;;;;;;;9.14;100.00;97244.28;5022857;28;20331;-81
2022/01/04 00:58:50;;;;;;;;;;;;;;;8.75;100.00;97236.63;5073850;28;19925;-81
2022/01/04 01:01:17;;;;;;;;;;;;;;;8.84;100.00;97235.91;5073695;28;19964;-81
2022/01/04 01:03:45;;;;;;;;;;;;;;;8.93;100.00;97247.09;5055894;28;19960;-80
2022/01/04 01:06:12;;;;;;;;;;;;;;;9.18;100.00;97243.34;5073593;28;20537;-81
2022/01/04 01:08:42;;;;;;;;;;;;;;;8.41;100.00;97249.84;5055488;28;19928;-80
2022/01/04 01:11:10;;;;;;;;;;;;;;;8.25;100.00;97231.34;5039225;28;19931;-80
2022/01/04 01:13:37;;;;;;;;;;;;;;;8.56;100.00;97234.94;5055701;28;19932;-80
2022/01/04 01:16:07;;;;;;;;;;;;;;;8.27;100.00;97222.53;5039530;28;19929;-80
2022/01/04 01:18:35;;;;;;;;;;;;;;;7.79;100.00;97215.44;5055586;28;19924;-80
2022/01/04 01:21:03;;;;;;;;;;;;;;;7.55;100.00;97217.06;5074480;28;20017;-80
2022/01/04 01:23:30;;;;;;;;;;;;;;;7.45;100.00;97214.63;5073578;28;19967;-80
2022/01/04 01:25:57;;;;;;;;;;;;;;;7.53;100.00;97222.28;5023051;28;19932;-80
2022/01/04 01:28:26;;;;;;;;;;;;;;;7.18;100.00;97223.41;5039467;28;20003;-80
2022/01/04 01:30:54;;;;;;;;;;;;;;;6.83;100.00;97227.31;5057287;28;19925;-79
2022/01/04 01:33:23;;;;;;;;;;;;;;;6.57;100.00;97234.03;5056962;28;19964;-80
2022/01/04 01:35:51;;;;;;;;;;;;;;;6.42;100.00;97241.22;5055335;28;19924;-80
2022/01/04 01:38:19;;;;;;;;;;;;;;;5.86;100.00;97235.19;5022563;28;19964;-80
2022/01/04 01:40:47;;;;;;;;;;;;;;;5.81;100.00;97240.47;5056909;28;19925;-80
2022/01/04 01:43:15;;;;;;;;;;;;;;;6.09;100.00;97256.41;5039216;28;20430;-80
2022/01/04 01:45:42;;;;;;;;;;;;;;;6.20;100.00;97256.88;5039072;28;19987;-80
2022/01/04 01:48:09;;;;;;;;;;;;;;;5.83;100.00;97254.72;5056602;28;20429;-80
2022/01/04 01:50:36;;;;;;;;;;;;;;;5.81;100.00;97259.88;5022517;28;19940;-80
2022/01/04 01:53:05;;;;;;;;;;;;;;;5.57;100.00;97260.06;5038919;28;20325;-80
2022/01/04 01:55:33;;;;;;;;;;;;;;;5.78;100.00;97257.97;5022737;28;19932;-80
2022/01/04 01:58:00;;;;;;;;;;;;;;;5.41;100.00;97267.59;5038740;28;19932;-80
2022/01/04 02:00:28;;;;;;;;;;;;;;;5.59;100.00;97270.69;5038691;28;19962;-80
2022/01/04 02:02:59;;;;;;;;;;;;;;;5.45;100.00;97282.91;5039420;28;19983;-80
2022/01/04 02:05:26;;;;;;;;;;;;;;;5.76;100.00;97271.47;5038826;28;19970;-80
2022/01/04 02:07:53;;;;;;;;;;;;;;;5.20;100.00;97270.88;5056425;28;19924;-80
2022/01/04 02:10:21;;;;;;;;;;;;;;;5.39;100.00;97289.41;5056546;28;19925;-80
2022/01/04 02:12:50;;;;;;;;;;;;;;;5.38;100.00;97279.53;5039071;28;20027;-80
2022/01/04 02:15:20;;;;;;;;;;;;;;;5.18;100.00;97276.06;5038364;28;19948;-80
2022/01/04 02:17:48;;;;;;;;;;;;;;;4.67;100.00;97262.97;5038383;28;19928;-79
2022/01/04 02:20:16;;;;;;;;;;;;;;;4.97;100.00;97282.84;5022212;28;20280;-80
2022/01/04 02:22:43;;;;;;;;;;;;;;;5.21;100.00;97267.66;5055932;28;20002;-80
2022/01/04 02:25:11;;;;;;;;;;;;;;;5.25;100.00;97276.69;5056067;28;19963;-80
2022/01/04 02:27:39;;;;;;;;;;;;;;;5.18;100.00;97268.53;5038352;28;19925;-80
2022/01/04 02:30:08;;;;;;;;;;;;;;;5.16;100.00;97284.81;5038313;28;20307;-80
2022/01/04 02:32:35;;;;;;;;;;;;;;;5.10;100.00;97269.88;5037954;28;20363;-80
2022/01/04 02:35:03;;;;;;;;;;;;;;;5.18;100.00;97282.38;5038088;28;20395;-80
2022/01/04 02:37:31;;;;;;;;;;;;;;;5.09;100.00;97282.19;5037943;28;20352;-80
2022/01/04 02:40:00;;;;;;;;;;;;;;;4.98;100.00;97267.03;5005483;28;19974;-80
2022/01/04 02:42:27;;;;;;;;;;;;;;;4.98;100.00;97273.31;5036061;28;19947;-80
2022/01/04 02:44:55;;;;;;;;;;;;;;;5.03;100.00;97275.59;5035594;28;19932;-80
2022/01/04 02:47:22;;;;;;;;;;;;;;;4.54;100.00;97271.16;5017762;28;19976;-79
2022/01/04 02:49:49;;;;;;;;;;;;;;;4.53;100.00;97286.16;5035452;28;19929;-80
2022/01/04 02:52:16;;;;;;;;;;;;;;;4.87;100.00;97278.34;5018138;28;20027;-79
2022/01/04 02:54:44;;;;;;;;;;;;;;;4.94;100.00;97278.16;5018096;28;19951;-80
2022/01/04 02:57:11;;;;;;;;;;;;;;;5.07;100.00;97284.59;5017646;28;20018;-79
2022/01/04 02:59:38;;;;;;;;;;;;;;;5.33;100.00;97272.50;5001348;28;19932;-79
2022/01/04 03:02:05;;;;;;;;;;;;;;;5.15;100.00;97283.22;5001146;28;19929;-79
2022/01/04 03:04:32;;;;;;;;;;;;;;;5.26;100.00;97281.00;5017327;28;19933;-79
2022/01/04 03:07:00;;;;;;;;;;;;;;;5.09;100.00;97279.41;5017472;28;20019;-79
2022/01/04 03:09:27;;;;;;;;;;;;;;;4.89;100.00;97275.91;5001205;28;19979;-80
2022/01/04 03:11:56;;;;;;;;;;;;;;;4.89;100.00;97280.69;5017922;28;19925;-80
2022/01/04 03:14:24;;;;;;;;;;;;;;;4.73;100.00;97273.09;5035045;28;19925;-79
2022/01/04 03:16:53;;;;;;;;;;;;;;;4.83;100.00;97277.63;5017621;28;19951;-80
2022/01/04 03:19:20;;;;;;;;;;;;;;;4.80;100.00;97286.78;5034753;28;20364;-79
2022/01/04 03:21:47;;;;;;;;;;;;;;;4.73;100.00;97280.63;5017095;28;20336;-79
2022/01/04 03:24:15;;;;;;;;;;;;;;;4.67;100.00;97285.09;5036286;28;20019;-79
2022/01/04 03:26:42;;;;;;;;;;;;;;;4.90;100.00;97283.00;5056798;28;19964;-79
2022/01/04 03:29:10;;;;;;;;;;;;;;;5.25;100.00;97285.00;5056887;28;19929;-80
2022/01/04 03:31:37;;;;;;;;;;;;;;;5.37;100.00;97289.06;5074670;28;19931;-79
2022/01/04 03:34:05;;;;;;;;;;;;;;;5.29;100.00;97299.53;5056586;28;19924;-80
2022/01/04 03:36:35;;;;;;;;;;;;;;;5.26;100.00;97288.53;5074376;28;19931;-79
2022/01/04 03:39:04;;;;;;;;;;;;;;;4.95;100.00;97290.78;5056534;28;20657;-80
2022/01/04 03:41:38;;;;;;;;;;;;;;;4.82;100.00;97287.13;5024491;28;19947;-79
2022/01/04 03:44:06;;;;;;;;;;;;;;;4.91;100.00;97290.09;5055606;28;19970;-79
2022/01/04 03:46:34;;;;;;;;;;;;;;;4.78;100.00;97291.19;5073848;28;19928;-80
2022/01/04 03:49:04;;;;;;;;;;;;;;;5.21;100.00;97295.34;5056125;28;19924;-79
2022/01/04 03:51:32;;;;;;;;;;;;;;;4.93;100.00;97304.28;5056071;28;20017;-79
2022/01/04 03:54:02;;;;;;;;;;;;;;;5.12;100.00;97311.78;5039873;28;19925;-79
2022/01/04 03:56:29;;;;;;;;;;;;;;;5.18;100.00;97304.50;5056109;28;20081;-79
2022/01/04 03:58:56;;;;;;;;;;;;;;;5.27;100.00;97307.47;5039743;28;19932;-79
2022/01/04 04:01:23;;;;;;;;;;;;;;;5.14;100.00;97314.09;5056250;28;19960;-79
2022/01/04 04:03:50;;;;;;;;;;;;;;;5.31;100.00;97307.41;5055870;28;19925;-79
2022/01/04 04:06:20;;;;;;;;;;;;;;;5.35;100.00;97308.09;5074094;28;19924;-80
2022/01/04 04:08:50;;;;;;;;;;;;;;;5.48;100.00;97309.75;5056159;28;19931;-79
2022/01/04 04:11:16;;;;;;;;;;;;;;;5.18;100.00;97312.81;5039385;28;19970;-79
2022/01/04 04:13:44;;;;;;;;;;;;;;;5.13;100.00;97318.88;5055859;28;19925;-79
2022/01/04 04:16:14;;;;;;;;;;;;;;;5.14;100.00;97316.88;5056463;28;20054;-79
2022/01/04 04:18:42;;;;;;;;;;;;;;;5.45;100.00;97324.44;5056214;28;20264;-79
2022/01/04 04:21:10;;;;;;;;;;;;;;;5.04;100.00;97324.19;5073985;28;19928;-79
2022/01/04 04:23:38;;;;;;;;;;;;;;;4.98;100.00;97323.16;5069182;28;19925;-79
2022/01/04 04:26:06;;;;;;;;;;;;;;;5.02;100.00;97320.31;5053663;28;19968;-79
2022/01/04 04:28:36;;;;;;;;;;;;;;;4.86;100.00;97323.03;5053614;28;19924;-78
2022/01/04 04:31:03;;;;;;;;;;;;;;;4.74;100.00;97324.44;5053940;28;19928;-79
2022/01/04 04:33:31;;;;;;;;;;;;;;;4.35;100.00;97329.97;5002894;28;19931;-79
2022/01/04 04:35:58;;;;;;;;;;;;;;;4.67;100.00;97341.22;5002830;28;20023;-79
2022/01/04 04:38:25;;;;;;;;;;;;;;;4.65;100.00;97337.31;5035737;28;19924;-79
2022/01/04 04:40:52;;;;;;;;;;;;;;;4.79;100.00;97337.00;5053417;28;19974;-79
2022/01/04 04:43:19;;;;;;;;;;;;;;;4.61;100.00;97342.13;5019444;28;19932;-79
2022/01/04 04:45:47;;;;;;;;;;;;;;;4.62;100.00;97343.69;5019224;28;19924;-79
2022/01/04 04:48:15;;;;;;;;;;;;;;;4.74;100.00;97338.28;5035676;28;19925;-79
2022/01/04 04:50:42;;;;;;;;;;;;;;;4.08;100.00;97337.59;5053449;28;19925;-80
2022/01/04 04:53:09;;;;;;;;;;;;;;;4.36;100.00;97331.53;5002939;28;19932;-80
2022/01/04 04:55:36;;;;;;;;;;;;;;;4.87;100.00;97339.22;5035936;28;20007;-80
2022/01/04 04:58:03;;;;;;;;;;;;;;;4.58;100.00;97338.22;5022961;28;19928;-79
2022/01/04 05:00:30;;;;;;;;;;;;;;;4.10;100.00;97340.72;5023345;28;20399;-79
2022/01/04 05:02:57;;;;;;;;;;;;;;;4.30;100.00;97338.00;5057249;28;19924;-79
2022/01/04 05:05:24;;;;;;;;;;;;;;;4.52;100.00;97337.16;5039905;28;19925;-79
2022/01/04 05:07:52;;;;;;;;;;;;;;;4.18;100.00;97342.13;5057029;28;19932;-77
2022/01/04 05:10:20;;;;;;;;;;;;;;;4.73;100.00;97333.97;5057258;28;19932;-79
2022/01/04 05:12:49;;;;;;;;;;;;;;;5.00;100.00;97326.28;5023422;28;20393;-80
2022/01/04 05:15:17;;;;;;;;;;;;;;;5.08;100.00;97324.13;5039168;28;20032;-79
2022/01/04 05:17:44;;;;;;;;;;;;;;;5.04;100.00;97326.22;5056234;28;20348;-80
2022/01/04 05:20:11;;;;;;;;;;;;;;;4.43;100.00;97319.56;5055446;28;20023;-77
2022/01/04 05:22:38;;;;;;;;;;;;;;;4.68;100.00;97311.56;5023819;28;19929;-77
2022/01/04 05:25:05;;;;;;;;;;;;;;;4.14;100.00;97301.94;5043996;28;19924;-77
2022/01/04 05:27:32;;;;;;;;;;;;;;;4.65;100.00;97304.88;5077055;28;19928;-77
2022/01/04 05:29:59;;;;;;;;;;;;;;;4.62;100.00;97316.03;5058964;28;19924;-77
2022/01/04 05:32:26;;;;;;;;;;;;;;;5.09;100.00;97322.91;5059225;28;19924;-77
2022/01/04 05:34:53;;;;;;;;;;;;;;;5.27;100.00;97318.53;5076524;28;19928;-77
2022/01/04 05:37:24;;;;;;;;;;;;;;;4.82;100.00;97336.94;5070769;28;20019;-77
2022/01/04 05:39:51;;;;;;;;;;;;;;;4.65;100.00;97343.59;5038871;28;19925;-77
2022/01/04 05:42:18;;;;;;;;;;;;;;;4.28;100.00;97332.88;5022514;28;19929;-77
2022/01/04 05:44:45;;;;;;;;;;;;;;;4.33;100.00;97332.38;5038422;28;20014;-77
2022/01/04 05:47:12;;;;;;;;;;;;;;;4.32;100.00;97325.28;5039063;28;19924;-77
2022/01/04 05:49:39;;;;;;;;;;;;;;;4.43;100.00;97325.88;5038858;28;19924;-77
2022/01/04 05:52:07;;;;;;;;;;;;;;;4.62;100.00;97322.34;5056545;28;19929;-77
2022/01/04 05:54:34;;;;;;;;;;;;;;;4.63;100.00;97318.38;5056266;28;19933;-77
2022/01/04 05:57:01;;;;;;;;;;;;;;;4.72;100.00;97321.34;5005812;28;19925;-77
2022/01/04 05:59:28;;;;;;;;;;;;;;;4.56;100.00;97318.50;5056199;28;20011;-77
2022/01/04 06:01:55;;;;;;;;;;;;;;;4.55;100.00;97321.69;5056220;28;19924;-77
2022/01/04 06:04:22;;;;;;;;;;;;;;;4.54;100.00;97320.13;5022178;28;19931;-77
2022/01/04 06:06:50;;;;;;;;;;;;;;;4.82;100.00;97320.34;5038139;28;19932;-77
2022/01/04 06:09:23;;;;;;;;;;;;;;;5.11;100.00;97326.84;5038178;28;19925;-78
2022/01/04 06:17:04;;;;;;;;;;;;;;;4.67;100.00;97329.34;5041761;28;20371;-77
2022/01/04 06:19:32;;;;;;;;;;;;;;;4.73;100.00;97322.91;5041977;28;20003;-77
2022/01/04 06:21:59;;;;;;;;;;;;;;;4.61;100.00;97312.47;5042077;28;20273;-77
2022/01/04 06:24:26;;;;;;;;;;;;;;;4.79;100.00;97325.94;5044890;28;20399;-77
2022/01/04 06:26:56;;;;;;;;;;;;;;;4.84;100.00;97326.25;5038369;28;19924;-77
2022/01/04 06:29:23;;;;;;;;;;;;;;;4.76;100.00;97329.56;5038098;28;19928;-77
2022/01/04 06:31:50;;;;;;;;;;;;;;;4.72;100.00;97329.66;5018312;28;20018;-76
2022/01/04 06:34:18;;;;;;;;;;;;;;;4.79;100.00;97331.47;5018063;28;19995;-76
2022/01/04 06:36:45;;;;;;;;;;;;;;;4.69;100.00;97341.56;5018098;28;20353;-75
2022/01/04 06:39:14;;;;;;;;;;;;;;;5.02;100.00;97353.53;5035694;28;19925;-76
2022/01/04 06:41:43;;;;;;;;;;;;;;;4.62;100.00;97336.16;5017877;28;19929;-74
2022/01/04 06:44:10;;;;;;;;;;;;;;;4.35;100.00;97352.09;5017921;28;20396;-75
2022/01/04 06:46:45;;;;;;;;;;;;;;;4.57;100.00;97358.81;5017583;28;19960;-75
2022/01/04 06:49:16;;;;;;;;;;;;;;;4.90;100.00;97368.00;5017414;28;20028;-76
2022/01/04 06:51:48;;;;;;;;;;;;;;;5.04;100.00;97371.25;5034901;28;19940;-76
2022/01/04 06:54:17;;;;;;;;;;;;;;;4.68;100.00;97364.88;5017320;28;20304;-75
2022/01/04 06:56:46;;;;;;;;;;;;;;;4.53;100.00;97369.13;5034327;28;19964;-75
2022/01/04 06:59:13;;;;;;;;;;;;;;;4.83;100.00;97366.16;5016511;28;19940;-75
2022/01/04 07:01:40;;;;;;;;;;;;;;;5.15;100.00;97362.75;5015226;28;20348;-75
2022/01/04 07:04:07;;;;;;;;;;;;;;;5.03;100.00;97375.25;5035384;28;19925;-75
2022/01/04 07:06:35;;;;;;;;;;;;;;;4.80;100.00;97374.56;5016850;28;19931;-75
2022/01/04 07:09:04;;;;;;;;;;;;;;;4.72;100.00;97382.22;5017443;28;20635;-75
2022/01/04 07:11:31;;;;;;;;;;;;;;;4.03;100.00;97379.53;5016871;28;20292;-75
2022/01/04 07:13:59;;;;;;;;;;;;;;;4.25;100.00;97380.72;5017617;28;20012;-75
2022/01/04 07:16:26;;;;;;;;;;;;;;;3.75;100.00;97388.28;5036925;28;20367;-75
2022/01/04 07:18:54;;;;;;;;;;;;;;;4.40;100.00;97392.31;5045882;28;19925;-75
2022/01/04 07:21:22;;;;;;;;;;;;;;;4.39;100.00;97394.28;5017107;28;19925;-75
2022/01/04 07:23:50;;;;;;;;;;;;;;;4.80;100.00;97389.16;5015502;28;19988;-75
2022/01/04 07:26:17;;;;;;;;;;;;;;;4.80;100.00;97382.84;5007546;28;19925;-76
2022/01/04 07:28:44;;;;;;;;;;;;;;;4.50;100.00;97385.81;5000742;28;19932;-75
2022/01/04 07:31:12;;;;;;;;;;;;;;;4.23;100.00;97388.66;5034537;28;19925;-75
2022/01/04 07:33:40;;;;;;;;;;;;;;;4.69;100.00;97383.06;5004251;28;20015;-75
2022/01/04 07:36:07;;;;;;;;;;;;;;;4.67;100.00;97391.00;5036702;28;20397;-75
2022/01/04 07:38:35;;;;;;;;;;;;;;;4.41;100.00;97411.25;5036664;28;19931;-75
2022/01/04 07:41:03;;;;;;;;;;;;;;;4.21;100.00;97404.09;5036582;28;19929;-75
2022/01/04 07:43:30;;;;;;;;;;;;;;;4.59;100.00;97410.94;5037021;28;20020;-75
2022/01/04 07:45:57;;;;;;;;;;;;;;;4.53;100.00;97412.63;5020444;28;19925;-75
2022/01/04 07:48:26;;;;;;;;;;;;;;;4.32;100.00;97401.91;5002812;28;19928;-75
2022/01/04 07:50:55;;;;;;;;;;;;;;;3.92;100.00;97422.34;5016844;28;20514;-75
2022/01/04 07:53:24;;;;;;;;;;;;;;;3.92;100.00;97416.81;5016877;28;20427;-76
2022/01/04 07:55:52;;;;;;;;;;;;;;;3.89;100.00;97423.97;5031530;28;19971;-76
2022/01/04 07:58:19;;;;;;;;;;;;;;;3.94;100.00;97420.72;5018448;28;19975;-76
2022/01/04 08:00:46;;;;;;;;;;;;;;;3.85;100.00;97423.25;5017594;28;19925;-76
2022/01/04 08:03:40;;;;;;;;;;;;;;;3.81;100.00;97424.50;5034818;28;19944;-76
2022/01/04 08:06:07;;;;;;;;;;;;;;;4.06;100.00;97424.91;5036152;28;19924;-76
2022/01/04 08:08:34;;;;;;;;;;;;;;;4.10;100.00;97437.47;5048033;28;20441;-76
2022/01/04 08:11:01;;;;;;;;;;;;;;;3.79;100.00;97429.69;5003343;28;19925;-76
2022/01/04 08:13:32;;;;;;;;;;;;;;;3.85;100.00;97426.00;5020324;28;19925;-78
2022/01/04 08:16:01;;;;;;;;;;;;;;;3.49;100.00;97427.72;5002930;28;19925;-76
2022/01/04 08:18:28;;;;;;;;;;;;;;;3.44;100.00;97425.44;5019085;28;19931;-76
2022/01/04 08:20:57;;;;;;;;;;;;;;;3.62;100.00;97434.22;5020001;28;19956;-76
2022/01/04 08:23:25;;;;;;;;;;;;;;;3.56;100.00;97433.13;5015976;28;20423;-76
2022/01/04 08:25:52;;;;;;;;;;;;;;;3.52;100.00;97438.72;5016111;28;20384;-77
2022/01/04 08:28:19;;;;;;;;;;;;;;;3.52;100.00;97438.72;5016237;28;19932;-77
2022/01/04 08:30:46;;;;;;;;;;;;;;;3.15;100.00;97446.34;5016152;28;19968;-77
2022/01/04 08:33:13;;;;;;;;;;;;;;;3.42;100.00;97455.44;5017196;28;20372;-77
2022/01/04 08:35:41;;;;;;;;;;;;;;;3.31;100.00;97472.16;5049391;28;19925;-77
2022/01/04 08:38:08;;;;;;;;;;;;;;;3.41;100.00;97462.94;5043583;28;20015;-77
2022/01/04 08:40:39;;;;;;;;;;;;;;;3.50;100.00;97478.97;5014098;28;19926;-76
2022/01/04 08:43:06;;;;;;;;;;;;;;;3.16;100.00;97475.50;5019190;28;19933;-76
2022/01/04 08:45:34;;;;;;;;;;;;;;;3.20;100.00;97470.69;5010277;28;19930;-77
2022/01/04 08:48:06;;;;;;;;;;;;;;;3.36;100.00;97474.44;5013677;28;19936;-76
2022/01/04 08:50:34;;;;;;;;;;;;;;;3.39;100.00;97483.88;5028414;28;19933;-76
2022/01/04 08:53:01;;;;;;;;;;;;;;;3.31;100.00;97479.63;5024042;28;20023;-76
2022/01/04 08:55:31;;;;;;;;;;;;;;;3.12;100.00;97477.53;5018479;28;19925;-90
2022/01/04 08:58:00;;;;;;;;;;;;;;;2.96;100.00;97471.78;4995682;28;19926;-76
2022/01/04 09:00:28;;;;;;;;;;;;;;;3.52;100.00;97493.16;5013020;28;19933;-75
2022/01/04 09:02:56;;;;;;;;;;;;;;;3.07;100.00;97483.50;4995867;28;19933;-76
2022/01/04 09:05:26;;;;;;;;;;;;;;;3.19;100.00;97502.25;5012459;28;20313;-76
2022/01/04 09:07:54;;;;;;;;;;;;;;;3.30;100.00;97497.41;5012072;28;19929;-76
2022/01/04 09:10:24;;;;;;;;;;;;;;;3.34;100.00;97501.69;5011945;28;19933;-75
2022/01/04 09:13:00;;;;;;;;;;;;;;;3.31;100.00;97505.28;5013657;28;19965;-78
2022/01/04 09:20:41;;;;;;;;;;;;;;;3.23;100.00;97505.75;5013715;28;19968;-75
2022/01/04 09:23:08;;;;;;;;;;;;;;;3.25;100.00;97500.63;5012148;28;19926;-75
2022/01/04 09:25:35;;;;;;;;;;;;;;;3.11;100.00;97525.59;5012427;28;19926;-75
2022/01/04 09:28:07;;;;;;;;;;;;;;;3.07;100.00;97511.88;5025427;28;19929;-75
2022/01/04 09:30:38;;;;;;;;;;;;;;;3.57;100.00;97501.00;5032653;28;19925;-75
2022/01/04 09:33:05;;;;;;;;;;;;;;;3.70;100.00;97504.75;5027141;28;19933;-75
2022/01/04 09:35:33;;;;;;;;;;;;;;;3.72;100.00;97497.63;5013180;28;19925;-75
2022/01/04 09:38:00;;;;;;;;;;;;;;;3.74;100.00;97511.03;5013955;28;19964;-75
2022/01/04 09:40:27;;;;;;;;;;;;;;;3.94;100.00;97509.16;5014935;28;19929;-75
2022/01/04 09:42:56;;;;;;;;;;;;;;;4.03;100.00;97517.69;5017097;28;20014;-75
2022/01/04 09:45:23;;;;;;;;;;;;;;;4.19;100.00;97504.03;5018533;28;20335;-77
2022/01/04 09:47:50;;;;;;;;;;;;;;;4.25;100.00;97502.38;5001716;28;20403;-74
2022/01/04 09:50:19;;;;;;;;;;;;;;;3.92;100.00;97506.03;5035578;28;19925;-75
2022/01/04 09:52:47;;;;;;;;;;;;;;;3.50;100.00;97501.06;5055590;28;20538;-75
2022/01/04 09:55:15;;;;;;;;;;;;;;;3.30;100.00;97514.72;5038768;28;19925;-74
2022/01/04 09:57:44;;;;;;;;;;;;;;;3.57;100.00;97518.34;5055258;28;19932;-75
2022/01/04 10:00:15;;;;;;;;;;;;;;;3.35;100.00;97524.53;5055620;28;19955;-73
2022/01/04 10:02:49;;;;;;;;;;;;;;;3.05;100.00;97525.28;5056282;28;20465;-74
2022/01/04 10:05:29;;;;;;;;;;;;;;;2.91;100.00;97538.44;5038278;28;19932;-74
2022/01/04 10:08:01;;;;;;;;;;;;;;;2.84;100.00;97541.28;5038431;28;19924;-74
2022/01/04 10:10:28;;;;;;;;;;;;;;;3.10;100.00;97543.38;5056075;28;19925;-74
2022/01/04 10:12:59;;;;;;;;;;;;;;;3.24;100.00;97537.69;5048088;28;20375;-74
2022/01/04 10:15:39;;;;;;;;;;;;;;;3.17;100.00;97549.59;5018093;28;19933;-74
2022/01/04 10:18:14;;;;;;;;;;;;;;;3.24;100.00;97555.03;5028232;28;19929;-74
2022/01/04 10:20:41;;;;;;;;;;;;;;;3.39;100.00;97547.38;5034914;28;19932;-74
2022/01/04 10:23:12;;;;;;;;;;;;;;;3.54;100.00;97551.53;5027417;28;19925;-74
2022/01/04 10:25:40;;;;;;;;;;;;;;;3.18;100.00;97564.19;5016342;28;19925;-74
2022/01/04 10:28:09;;;;;;;;;;;;;;;3.43;100.00;97557.19;5033026;28;19978;-74
2022/01/04 10:30:43;;;;;;;;;;;;;;;3.57;100.00;97545.94;5054782;28;19929;-74
2022/01/04 10:33:10;;;;;;;;;;;;;;;4.00;100.00;97537.88;5037879;28;19925;-74
2022/01/04 10:35:44;;;;;;;;;;;;;;;3.84;100.00;97543.25;5044735;28;20015;-74
2022/01/04 10:38:11;;;;;;;;;;;;;;;3.88;100.00;97543.97;5050256;28;20439;-74
2022/01/04 10:40:39;;;;;;;;;;;;;;;3.76;100.00;97550.06;4988578;28;20478;-74
2022/01/04 10:43:17;;;;;;;;;;;;;;;3.87;100.00;97556.22;5031423;28;19925;-74
2022/01/04 10:45:47;;;;;;;;;;;;;;;3.88;100.00;97568.84;5013018;28;19947;-74
2022/01/04 10:48:14;;;;;;;;;;;;;;;3.91;100.00;97562.47;5039627;28;19932;-74
2022/01/04 10:50:41;;;;;;;;;;;;;;;4.02;100.00;97568.66;5016269;28;20387;-74
2022/01/04 10:53:18;;;;;;;;;;;;;;;3.75;100.00;97567.84;4991579;28;19925;-75
2022/01/04 10:55:50;;;;;;;;;;;;;;;4.07;100.00;97565.44;5015272;28;19936;-74
2022/01/04 10:58:22;;;;;;;;;;;;;;;4.00;100.00;97562.75;5034445;28;19925;-74
2022/01/04 11:00:49;;;;;;;;;;;;;;;3.83;100.00;97551.94;5035162;28;19925;-74
2022/01/04 11:03:37;;;;;;;;;;;;;;;4.15;100.00;97553.06;5029029;28;19925;-74
2022/01/04 11:06:25;;;;;;;;;;;;;;;4.18;100.00;97552.22;4997276;28;19926;-75
2022/01/04 11:08:52;;;;;;;;;;;;;;;3.75;100.00;97551.25;4999839;28;19925;-74
2022/01/04 11:11:19;;;;;;;;;;;;;;;3.93;100.00;97551.81;5014570;28;20012;-75
2022/01/04 11:13:53;;;;;;;;;;;;;;;3.73;100.00;97561.94;4996987;28;19933;-74
2022/01/04 11:16:22;;;;;;;;;;;;;;;3.91;100.00;97551.44;4983283;28;19925;-74
2022/01/04 11:18:52;;;;;;;;;;;;;;;4.28;100.00;97561.56;5031358;28;19932;-74
2022/01/04 11:21:21;;;;;;;;;;;;;;;4.26;100.00;97548.16;5015699;28;19932;-75
2022/01/04 11:23:48;;;;;;;;;;;;;;;3.86;100.00;97568.50;5031487;28;19935;-74
2022/01/04 11:26:15;;;;;;;;;;;;;;;4.25;100.00;97579.78;4993742;28;20278;-74
2022/01/04 11:28:44;;;;;;;;;;;;;;;4.06;100.00;97571.38;5002107;28;19929;-74
2022/01/04 11:31:23;;;;;;;;;;;;;;;4.20;100.00;97579.44;5014333;28;20019;-74
2022/01/04 11:34:06;;;;;;;;;;;;;;;4.14;100.00;97573.63;4981172;28;19931;-74
2022/01/04 11:36:34;;;;;;;;;;;;;;;3.93;100.00;97584.16;4997281;28;19930;-74
2022/01/04 11:39:01;;;;;;;;;;;;;;;3.88;100.00;97581.88;4996343;28;19980;-74
2022/01/04 11:41:35;;;;;;;;;;;;;;;4.19;100.00;97595.28;4981227;28;20277;-74
2022/01/04 11:44:21;;;;;;;;;;;;;;;4.77;100.00;97594.00;4997231;28;19929;-74
2022/01/04 11:47:09;;;;;;;;;;;;;;;4.59;100.00;97594.25;5014630;28;19925;-74
2022/01/04 11:49:40;;;;;;;;;;;;;;;4.66;100.00;97583.09;4997105;28;19933;-74
2022/01/04 11:52:09;;;;;;;;;;;;;;;4.45;100.00;97577.91;4980732;28;20262;-74
2022/01/04 11:54:36;;;;;;;;;;;;;;;4.58;100.00;97580.84;5023215;28;20006;-74
2022/01/04 11:57:15;;;;;;;;;;;;;;;4.35;100.00;97584.34;5015709;28;19991;-74
2022/01/04 11:59:45;;;;;;;;;;;;;;;4.63;100.00;97572.88;4999339;28;19947;-75
2022/01/04 12:02:28;;;;;;;;;;;;;;;4.85;100.00;97564.97;5016153;28;20464;-74
2022/01/04 12:04:56;;;;;;;;;;;;;;;4.55;100.00;97560.34;5033787;28;19931;-74
2022/01/04 12:07:39;;;;;;;;;;;;;;;4.70;100.00;97563.66;5016404;28;20020;-74
2022/01/04 12:10:19;;;;;;;;;;;;;;;4.55;100.00;97549.28;5000519;28;19933;-74
2022/01/04 12:12:52;;;;;;;;;;;;;;;4.95;100.00;97550.94;5034032;28;19932;-74
2022/01/04 12:15:48;;;;;;;;;;;;;;;5.10;100.00;97557.78;5033876;28;20369;-74
2022/01/04 12:18:27;;;;;;;;;;;;;;;5.04;100.00;97551.19;4937575;29;19933;-75
2022/01/04 12:20:59;;;;;;;;;;;;;;;4.72;100.00;97558.50;4937642;29;20017;-74
2022/01/04 12:23:37;;;;;;;;;;;;;;;4.76;100.00;97557.22;4953592;29;19958;-74
2022/01/04 12:26:05;;;;;;;;;;;;;;;4.35;100.00;97553.94;4953462;29;20009;-74
2022/01/04 12:28:35;;;;;;;;;;;;;;;4.30;100.00;97554.41;4953531;29;19971;-74
2022/01/04 12:31:18;;;;;;;;;;;;;;;4.46;100.00;97557.34;4921563;29;20390;-75
2022/01/04 12:33:46;;;;;;;;;;;;;;;4.16;100.00;97568.47;4953603;29;19970;-74
2022/01/04 12:36:28;;;;;;;;;;;;;;;4.32;100.00;97573.34;4970583;28;20028;-74
2022/01/04 12:38:56;;;;;;;;;;;;;;;3.97;100.00;97574.63;4956629;28;19954;-74
2022/01/04 12:41:24;;;;;;;;;;;;;;;4.19;100.00;97577.88;4940753;28;19933;-74
2022/01/04 12:43:51;;;;;;;;;;;;;;;4.28;100.00;97562.34;4956805;28;20021;-74
2022/01/04 12:46:38;;;;;;;;;;;;;;;3.97;100.00;97568.34;4956548;28;20604;-74
2022/01/04 12:49:08;;;;;;;;;;;;;;;4.37;100.00;97586.69;4957011;28;19982;-74
2022/01/04 12:51:39;;;;;;;;;;;;;;;4.32;100.00;97585.19;4972757;28;20413;-74
2022/01/04 12:54:07;;;;;;;;;;;;;;;4.26;100.00;97575.00;4979091;28;19926;-73
2022/01/04 12:56:45;;;;;;;;;;;;;;;4.61;100.00;97578.03;5014078;28;19933;-74
2022/01/04 12:59:40;;;;;;;;;;;;;;;4.41;100.00;97568.84;5031628;28;19925;-74
2022/01/04 13:02:07;;;;;;;;;;;;;;;4.26;100.00;97580.53;5031247;28;20014;-74
2022/01/04 13:04:36;;;;;;;;;;;;;;;4.61;100.00;97569.72;5033538;28;19935;-74
2022/01/04 13:07:20;;;;;;;;;;;;;;;4.34;100.00;97555.16;5032011;28;20028;-74
2022/01/04 13:09:52;;;;;;;;;;;;;;;4.21;100.00;97561.69;5032282;28;20273;-74
2022/01/04 13:12:20;;;;;;;;;;;;;;;4.46;100.00;97562.88;5032375;28;20319;-74
2022/01/04 13:14:47;;;;;;;;;;;;;;;4.00;100.00;97551.69;5032030;28;19932;-75